Dati Storici

Data ora Umidita' aria (%) Temperatura aria (°C) Rad globale (W/m²) Gonioanemometro (°) Tacoanemometro (m/s) Pioggia (mm)
20-10-2012 00:00 86.8 % 13.303 1.267 237.731 0.996 0
19-10-2012 23:50 86.3 % 13.407 1.239 265.767 0.728 0
19-10-2012 23:40 85.9 % 13.518 1.059 265.952 0.57 0
19-10-2012 23:30 85.7 % 13.655 1.034 237.379 0.967 0
19-10-2012 23:20 85.3 % 13.819 1.175 241.755 0.375 0
19-10-2012 23:10 85 % 13.904 1.047 225.668 1.161 0
19-10-2012 23:00 84.5 % 13.985 0.905 228.397 0.903 0
19-10-2012 22:50 84.2 % 14.185 0.897 244.245 0.8 0
19-10-2012 22:40 83.8 % 14.353 0.833 216.475 0.777 0
19-10-2012 22:30 84.5 % 14.555 1.089 218.331 0.52 0
19-10-2012 22:20 85.7 % 14.29 0.936 194.056 1.619 0
19-10-2012 22:10 85.2 % 14.231 1.038 137.856 0.365 0
19-10-2012 22:00 85 % 14.401 0.936 187.618 0.525 0
19-10-2012 21:50 85.3 % 14.49 0.833 155.586 1.271 0
19-10-2012 21:40 83.2 % 13.891 0.564 196.964 0.245 0
19-10-2012 21:30 82.4 % 14.473 0.486 299.166 0.121 0
19-10-2012 21:20 82.1 % 14.812 0.87 220.451 0.515 0
19-10-2012 21:10 81.6 % 15.02 0.96 281.58 1.036 0
19-10-2012 21:00 81.4 % 15.118 0.87 228.129 0.572 0
19-10-2012 20:50 80.9 % 15.192 0.935 249.736 0.199 0

I dati sono presentati in modo automatico a scopo informativo. In seguito a verifica i dati possono subire modifiche o essere invalidati e non riportati negli archivi definitivi.